Time;durP1;ratioP1;P1;durP2;ratioP2;P2;SDS_P1;SDS_P2;PMS_P1;PMS_P2;Temp;Humidity;BMP_temperature;BMP_pressure;BME280_temperature;BME280_humidity;BME280_pressure;Samples;Min_cycle;Max_cycle;Signal;HPM_P1;HPM_P2
2023/01/11 00:00:23;;;;;;;9.13;4.72;;;;;;;6.17;100.00;100394.81;5111836;28;20020;-69
2023/01/11 00:02:57;;;;;;;6.88;5.10;;;;;;;6.12;100.00;100412.91;5111946;28;20027;-69
2023/01/11 00:05:22;;;;;;;6.65;4.88;;;;;;;6.05;100.00;100406.28;5113116;27;20023;-68
2023/01/11 00:07:48;;;;;;;7.15;4.97;;;;;;;6.06;100.00;100408.84;5112913;28;20047;-69
2023/01/11 00:10:14;;;;;;;7.53;4.85;;;;;;;6.05;100.00;100407.16;5112839;28;20036;-68
2023/01/11 00:12:39;;;;;;;6.43;4.75;;;;;;;6.24;100.00;100412.94;5113004;28;20035;-69
2023/01/11 00:15:05;;;;;;;8.27;4.85;;;;;;;6.22;99.13;100412.19;5112974;28;20076;-69
2023/01/11 00:17:31;;;;;;;6.82;4.75;;;;;;;6.22;99.27;100421.97;5112960;28;20113;-67
2023/01/11 00:19:56;;;;;;;8.40;5.13;;;;;;;6.18;99.62;100410.69;5112718;28;20031;-68
2023/01/11 00:22:22;;;;;;;8.77;5.22;;;;;;;6.17;99.64;100416.13;5112376;28;20546;-68
2023/01/11 00:24:47;;;;;;;9.00;5.10;;;;;;;6.15;100.00;100424.22;5112695;28;20031;-68
2023/01/11 00:27:13;;;;;;;9.43;5.22;;;;;;;6.18;100.00;100428.47;5112781;28;20032;-68
2023/01/11 00:29:38;;;;;;;8.32;4.93;;;;;;;6.16;100.00;100420.59;5112285;28;20031;-68
2023/01/11 00:32:04;;;;;;;7.28;4.65;;;;;;;6.25;99.71;100427.94;5112314;28;20020;-68
2023/01/11 00:34:29;;;;;;;8.60;5.38;;;;;;;6.24;99.20;100425.38;5111982;28;20366;-68
2023/01/11 00:36:54;;;;;;;6.35;4.90;;;;;;;6.19;99.81;100417.72;5110698;28;20607;-68
2023/01/11 00:39:20;;;;;;;8.50;4.70;;;;;;;6.22;99.87;100424.63;5112193;28;20137;-68
2023/01/11 00:50:12;;;;;;;7.57;5.00;;;;;;;6.23;99.52;100429.84;5088723;28;20050;-71
2023/01/11 00:52:37;;;;;;;7.72;4.57;;;;;;;6.37;97.88;100447.56;5112489;28;20032;-71
2023/01/11 00:55:03;;;;;;;7.20;4.65;;;;;;;6.27;97.98;100450.03;5110758;28;20085;-71
2023/01/11 00:57:29;;;;;;;9.27;5.88;;;;;;;6.24;98.80;100455.56;5112099;28;20027;-69
2023/01/11 00:59:54;;;;;;;10.07;5.60;;;;;;;6.19;98.10;100456.81;5111906;28;20084;-70
2023/01/11 01:02:21;;;;;;;8.10;5.93;;;;;;;6.21;98.55;100463.75;5112228;28;20622;-70
2023/01/11 01:04:47;;;;;;;8.80;5.45;;;;;;;6.41;97.03;100467.69;5112260;28;20035;-71
2023/01/11 01:07:12;;;;;;;7.88;5.40;;;;;;;6.45;96.51;100474.56;5111976;28;20035;-70
2023/01/11 01:09:38;;;;;;;8.77;5.28;;;;;;;6.28;97.01;100469.50;5111832;28;20467;-70
2023/01/11 01:12:05;;;;;;;10.32;5.88;;;;;;;6.17;97.67;100464.06;5110966;28;20060;-70
2023/01/11 01:14:32;;;;;;;7.38;5.22;;;;;;;6.22;98.71;100488.53;5111931;28;20080;-71
2023/01/11 01:17:05;;;;;;;9.52;6.38;;;;;;;6.27;97.92;100487.31;5111553;28;20031;-70
2023/01/11 01:19:34;;;;;;;10.45;5.35;;;;;;;6.22;98.12;100492.06;5110689;28;20725;-69
2023/01/11 01:22:00;;;;;;;8.52;5.78;;;;;;;6.09;97.60;100461.03;5111753;28;20039;-69
2023/01/11 01:24:29;;;;;;;10.05;6.00;;;;;;;6.14;98.20;100480.22;5111273;28;20083;-68
2023/01/11 01:26:58;;;;;;;9.90;5.18;;;;;;;6.17;97.84;100480.88;5111259;28;20437;-68
2023/01/11 01:29:24;;;;;;;9.18;6.05;;;;;;;6.11;98.73;100470.66;5111837;28;20039;-69
2023/01/11 01:31:50;;;;;;;9.65;6.38;;;;;;;6.27;97.49;100483.78;5111616;28;20035;-69
2023/01/11 01:34:16;;;;;;;8.02;5.68;;;;;;;6.26;97.61;100490.06;5109836;28;20026;-69
2023/01/11 01:36:41;;;;;;;8.98;5.60;;;;;;;6.24;97.72;100483.97;5111241;28;20031;-67
2023/01/11 01:39:07;;;;;;;8.80;6.03;;;;;;;6.21;98.43;100490.38;5110972;28;20040;-67
2023/01/11 01:41:34;;;;;;;9.90;5.90;;;;;;;6.33;96.54;100496.69;5111182;28;20063;-67
2023/01/11 01:44:02;;;;;;;9.90;5.93;;;;;;;6.21;97.30;100487.72;5110955;28;20376;-68
2023/01/11 01:46:32;;;;;;;9.52;6.10;;;;;;;6.31;96.33;100488.78;5111069;28;20035;-67
2023/01/11 01:49:03;;;;;;;9.07;6.22;;;;;;;6.42;95.67;100485.41;5110867;28;20075;-67
2023/01/11 01:51:53;;;;;;;10.20;6.32;;;;;;;6.35;95.86;100484.09;5110645;28;20050;-69
2023/01/11 01:54:26;;;;;;;10.40;6.18;;;;;;;6.21;96.87;100490.38;5110930;28;20360;-68
2023/01/11 01:57:03;;;;;;;11.50;6.35;;;;;;;6.14;97.51;100493.53;5109689;28;20059;-67
2023/01/11 01:59:32;;;;;;;12.27;7.07;;;;;;;6.18;97.26;100492.38;5111107;28;20383;-68
2023/01/11 02:01:58;;;;;;;13.27;7.13;;;;;;;6.09;97.67;100491.19;5110158;28;20401;-68
2023/01/11 02:04:32;;;;;;;11.80;6.78;;;;;;;6.13;96.79;100481.19;5110468;28;20038;-67
2023/01/11 02:07:03;;;;;;;11.25;6.78;;;;;;;6.07;97.83;100484.25;5108667;28;20129;-68
2023/01/11 02:09:54;;;;;;;12.48;7.00;;;;;;;6.09;97.53;100483.19;5110533;28;20034;-67
2023/01/11 02:12:20;;;;;;;9.38;6.72;;;;;;;5.96;98.10;100489.44;5103503;28;20032;-68
2023/01/11 02:14:47;;;;;;;12.25;6.85;;;;;;;6.00;98.09;100493.63;5108259;28;20773;-68
2023/01/11 02:17:13;;;;;;;11.20;6.95;;;;;;;5.97;99.24;100494.66;5109980;28;20031;-68
2023/01/11 02:19:45;;;;;;;15.02;8.20;;;;;;;5.99;98.76;100487.44;5110070;28;20027;-69
2023/01/11 02:22:37;;;;;;;12.30;7.85;;;;;;;5.97;98.57;100486.66;5107603;28;20043;-66
2023/01/11 02:25:25;;;;;;;12.27;7.43;;;;;;;6.02;98.78;100489.03;5108765;28;20093;-68
2023/01/11 02:27:57;;;;;;;9.48;6.57;;;;;;;5.95;98.21;100487.72;5109585;28;20124;-68
2023/01/11 02:30:50;;;;;;;11.52;6.85;;;;;;;5.94;98.29;100496.69;5109672;28;20102;-68
2023/01/11 02:33:54;;;;;;;10.65;7.10;;;;;;;5.94;98.72;100486.03;5106432;28;20038;-68
2023/01/11 02:36:22;;;;;;;11.20;6.90;;;;;;;5.92;98.47;100478.16;5077556;28;20043;-68
2023/01/11 02:38:56;;;;;;;12.25;7.15;;;;;;;5.94;98.18;100473.56;5109630;28;20073;-68
2023/01/11 02:47:28;;;;;;;11.93;7.25;;;;;;;5.91;97.74;100425.03;5109669;28;20270;-68
2023/01/11 02:50:04;;;;;;;11.80;7.45;;;;;;;5.83;98.46;100417.53;5107139;28;20032;-68
2023/01/11 02:52:40;;;;;;;12.05;7.22;;;;;;;5.84;97.64;100445.84;5106700;28;20348;-67
2023/01/11 02:55:10;;;;;;;9.93;6.55;;;;;;;5.84;97.22;100453.84;5109068;28;20054;-68
2023/01/11 02:57:39;;;;;;;10.73;6.85;;;;;;;5.90;97.14;100455.25;5109568;28;20404;-68
2023/01/11 03:00:06;;;;;;;12.70;7.15;;;;;;;5.77;98.13;100439.19;5106969;28;20418;-68
2023/01/11 03:02:32;;;;;;;9.88;6.95;;;;;;;5.92;97.72;100454.19;5107041;28;20502;-69
2023/01/11 03:04:57;;;;;;;12.40;7.47;;;;;;;5.78;97.44;100445.38;5108831;28;20023;-68
2023/01/11 03:07:54;;;;;;;11.25;6.95;;;;;;;5.78;97.41;100461.34;5109315;28;20066;-67
2023/01/11 03:10:28;;;;;;;8.88;6.20;;;;;;;5.72;97.09;100459.97;5109275;28;20110;-68
2023/01/11 03:13:17;;;;;;;13.52;6.32;;;;;;;5.77;97.33;100484.44;5107479;28;20084;-68
2023/01/11 03:16:03;;;;;;;10.85;6.10;;;;;;;5.77;97.91;100487.09;5132595;27;20031;-68
2023/01/11 03:18:37;;;;;;;8.48;6.38;;;;;;;5.77;98.06;100480.94;5106284;28;20425;-69
2023/01/11 03:21:25;;;;;;;8.43;6.20;;;;;;;5.74;97.74;100481.97;5112299;28;20051;-67
2023/01/11 03:24:08;;;;;;;12.43;6.60;;;;;;;5.74;98.15;100478.47;5113868;28;20245;-67
2023/01/11 03:26:42;;;;;;;10.75;7.03;;;;;;;5.70;98.21;100483.13;5113918;28;20023;-68
2023/01/11 03:29:11;;;;;;;;;;;;;;;5.77;97.14;100486.28;5114465;28;20028;-68
2023/01/11 03:31:51;;;;;;;13.57;7.18;;;;;;;5.62;97.81;100477.47;5113545;28;19918;-67
2023/01/11 03:34:54;;;;;;;11.15;6.40;;;;;;;5.63;98.13;100488.94;5113246;28;20088;-67
2023/01/11 03:37:28;;;;;;;10.25;6.32;;;;;;;5.69;96.93;100488.56;5113745;28;20040;-67
2023/01/11 03:40:12;;;;;;;10.45;6.10;;;;;;;5.66;97.31;100504.72;5113491;28;20655;-68
2023/01/11 03:43:09;;;;;;;8.15;6.07;;;;;;;5.61;98.26;100514.81;5113654;28;20043;-68
2023/01/11 03:45:32;;;;;;;12.02;7.10;;;;;;;5.68;97.74;100524.09;5112880;28;20043;-68
2023/01/11 03:48:00;;;;;;;12.32;6.55;;;;;;;5.63;97.84;100511.09;5113296;28;20365;-71
2023/01/11 03:50:28;;;;;;;10.00;6.00;;;;;;;5.73;96.63;100528.19;5113416;28;20377;-70
2023/01/11 03:52:56;;;;;;;12.48;7.07;;;;;;;5.71;96.44;100534.56;5113696;28;20395;-71
2023/01/11 03:55:25;;;;;;;8.48;6.05;;;;;;;5.64;97.16;100530.59;5113516;28;20038;-70
2023/01/11 03:57:53;;;;;;;10.38;7.05;;;;;;;5.64;97.24;100518.13;5113673;28;20719;-70
2023/01/11 04:00:20;;;;;;;11.15;6.22;;;;;;;5.63;97.86;100529.72;5113266;28;20455;-70
2023/01/11 04:02:46;;;;;;;8.15;6.00;;;;;;;5.66;96.77;100537.50;5111917;28;20042;-70
2023/01/11 04:05:11;;;;;;;8.95;6.38;;;;;;;5.71;97.50;100546.03;5113299;27;20031;-71
2023/01/11 04:07:37;;;;;;;10.35;6.72;;;;;;;5.76;97.19;100529.78;5113212;28;20057;-70
2023/01/11 04:10:03;;;;;;;11.77;6.13;;;;;;;5.78;95.80;100523.44;5112859;28;20055;-70
2023/01/11 04:12:29;;;;;;;11.57;6.57;;;;;;;5.73;96.11;100514.88;5112981;28;20043;-71
2023/01/11 04:14:54;;;;;;;11.02;6.55;;;;;;;5.61;96.58;100496.19;5112991;28;20019;-71
2023/01/11 04:17:20;;;;;;;9.50;6.07;;;;;;;5.67;96.13;100495.81;5113117;27;20880;-70
2023/01/11 04:19:46;;;;;;;8.73;5.85;;;;;;;5.75;96.14;100518.31;5113210;28;20024;-71
2023/01/11 04:22:11;;;;;;;11.85;5.93;;;;;;;5.64;96.34;100503.97;5111952;28;20028;-71
2023/01/11 04:24:37;;;;;;;8.73;6.45;;;;;;;5.63;97.17;100543.03;5112713;27;20094;-71
2023/01/11 04:27:02;;;;;;;8.70;5.97;;;;;;;5.56;97.98;100547.03;5112786;28;20050;-71
2023/01/11 04:29:28;;;;;;;9.65;6.15;;;;;;;5.62;97.01;100554.63;5113099;28;20030;-71
2023/01/11 04:31:53;;;;;;;9.52;6.13;;;;;;;5.67;96.52;100538.38;5112503;28;20031;-71
2023/01/11 04:34:18;;;;;;;10.23;5.70;;;;;;;5.61;96.86;100523.63;5112224;28;20061;-71
2023/01/11 04:36:44;;;;;;;11.38;7.20;;;;;;;5.68;96.64;100522.28;5111292;28;20080;-70
2023/01/11 04:39:09;;;;;;;8.43;6.03;;;;;;;5.58;97.64;100523.00;5112645;28;20031;-71
2023/01/11 04:44:20;;;;;;;10.43;6.50;;;;;;;5.67;96.81;100522.41;5112442;28;20176;-70
2023/01/11 04:46:45;;;;;;;16.85;7.55;;;;;;;5.71;96.22;100540.72;5112166;28;20118;-71
2023/01/11 04:49:11;;;;;;;9.00;6.60;;;;;;;5.65;96.63;100527.84;5112284;28;20044;-70
2023/01/11 04:51:36;;;;;;;10.25;6.75;;;;;;;5.61;96.75;100538.75;5112501;28;20028;-70
2023/01/11 04:54:02;;;;;;;10.25;6.78;;;;;;;5.57;95.56;100534.56;5112294;28;20506;-71
2023/01/11 04:56:28;;;;;;;10.38;6.43;;;;;;;5.56;96.03;100539.06;5112301;28;20039;-71
2023/01/11 04:58:53;;;;;;;12.60;6.82;;;;;;;5.60;96.71;100561.84;5112303;28;20036;-70
2023/01/11 05:01:19;;;;;;;11.88;6.25;;;;;;;5.55;97.10;100571.06;5111836;28;20028;-71
2023/01/11 05:03:45;;;;;;;11.52;6.75;;;;;;;5.58;96.92;100566.41;5111587;28;20059;-71
2023/01/11 05:06:12;;;;;;;8.93;5.80;;;;;;;5.59;96.83;100562.81;5111401;28;20042;-70
2023/01/11 05:08:38;;;;;;;12.43;6.10;;;;;;;5.49;95.76;100552.84;5110829;28;20427;-68
2023/01/11 05:11:06;;;;;;;11.88;7.15;;;;;;;5.54;96.68;100564.03;5110614;27;20019;-68
2023/01/11 05:13:40;;;;;;;8.93;5.90;;;;;;;5.52;96.57;100548.19;5110755;28;20035;-68
2023/01/11 05:16:17;;;;;;;9.00;5.35;;;;;;;5.60;95.93;100545.00;5110403;28;20024;-68
2023/01/11 05:19:04;;;;;;;7.78;5.47;;;;;;;5.55;96.74;100545.31;5110419;28;20102;-68
2023/01/11 05:21:32;;;;;;;10.48;6.07;;;;;;;5.62;95.87;100537.81;5109918;28;20031;-68
2023/01/11 05:23:59;;;;;;;8.90;5.68;;;;;;;5.48;96.54;100519.22;5109118;28;20023;-68
2023/01/11 05:26:30;;;;;;;9.85;5.35;;;;;;;5.60;96.21;100555.66;5109949;28;20037;-68
2023/01/11 05:28:58;;;;;;;9.20;5.05;;;;;;;5.55;96.21;100533.84;5110854;28;20038;-71
2023/01/11 05:31:24;;;;;;;11.40;6.18;;;;;;;5.54;96.42;100532.97;5111042;28;20047;-71
2023/01/11 05:33:50;;;;;;;9.73;6.00;;;;;;;5.59;96.77;100549.50;5110960;27;20125;-71
2023/01/11 05:36:18;;;;;;;8.35;6.15;;;;;;;5.61;96.04;100552.06;5111152;28;20140;-71
2023/01/11 05:38:45;;;;;;;10.45;6.95;;;;;;;5.55;96.49;100536.50;5109896;28;20035;-68
2023/01/11 05:41:11;;;;;;;12.77;6.07;;;;;;;5.73;95.60;100552.13;5111106;28;20067;-70
2023/01/11 05:46:21;;;;;;;8.82;5.88;;;;;;;5.60;96.21;100553.88;5108683;28;20756;-70
2023/01/11 05:48:47;;;;;;;8.52;5.88;;;;;;;5.61;96.42;100571.53;5110097;28;20058;-69
2023/01/11 05:51:12;;;;;;;9.05;5.78;;;;;;;5.56;96.45;100581.63;5111140;28;20035;-70
2023/01/11 05:53:38;;;;;;;13.15;6.40;;;;;;;5.62;96.25;100585.69;5109686;28;20015;-70
2023/01/11 05:56:03;;;;;;;9.60;6.50;;;;;;;5.67;95.56;100592.41;5111012;28;20027;-70
2023/01/11 05:58:29;;;;;;;11.02;6.25;;;;;;;5.54;95.81;100588.81;5111321;28;20035;-70
2023/01/11 06:00:55;;;;;;;10.60;5.85;;;;;;;5.55;96.94;100592.34;5111257;28;20035;-70
2023/01/11 06:03:22;;;;;;;8.73;6.05;;;;;;;5.56;96.40;100599.38;5111276;28;20084;-70
2023/01/11 06:05:48;;;;;;;8.65;5.93;;;;;;;5.49;96.86;100592.75;5110816;28;20051;-69
2023/01/11 06:08:14;;;;;;;8.95;6.00;;;;;;;5.57;96.56;100601.94;5109302;28;20067;-71
2023/01/11 06:10:39;;;;;;;8.55;6.22;;;;;;;5.57;96.17;100601.94;5109613;28;20030;-70
2023/01/11 06:15:49;;;;;;;9.85;5.80;;;;;;;5.61;95.70;100614.09;5103808;28;20093;-69
2023/01/11 06:18:15;;;;;;;9.45;5.85;;;;;;;5.64;96.02;100618.38;5108939;27;20114;-69
2023/01/11 06:20:40;;;;;;;10.18;6.30;;;;;;;5.63;95.04;100612.19;5103109;27;20023;-70
2023/01/11 06:23:06;;;;;;;8.48;6.20;;;;;;;5.73;94.63;100612.47;5110514;28;20039;-70
2023/01/11 06:25:36;;;;;;;9.95;6.40;;;;;;;5.66;95.27;100604.03;5110466;28;20483;-70
2023/01/11 06:28:02;;;;;;;10.63;6.25;;;;;;;5.70;94.91;100612.66;5109704;28;20057;-70
2023/01/11 06:30:27;;;;;;;9.35;6.00;;;;;;;5.75;94.06;100611.44;5108682;28;20016;-70
2023/01/11 06:32:53;;;;;;;10.48;6.03;;;;;;;5.69;94.55;100619.81;5107296;28;20037;-70
2023/01/11 06:35:19;;;;;;;10.52;5.95;;;;;;;5.69;94.84;100621.59;5106866;28;20024;-71
2023/01/11 06:37:45;;;;;;;9.63;6.30;;;;;;;5.71;94.34;100606.41;5110667;28;20024;-71
2023/01/11 06:40:11;;;;;;;9.93;5.95;;;;;;;5.70;94.77;100617.97;5111027;28;20606;-71
2023/01/11 06:42:37;;;;;;;9.90;6.68;;;;;;;5.73;93.64;100612.47;5110346;28;20038;-71
2023/01/11 06:45:02;;;;;;;10.55;6.32;;;;;;;5.71;93.70;100593.94;5109320;28;20055;-70
2023/01/11 06:47:28;;;;;;;9.25;5.57;;;;;;;5.85;92.60;100601.06;5110020;28;20056;-70
2023/01/11 06:49:54;;;;;;;10.43;5.88;;;;;;;5.76;93.58;100618.47;5110070;28;20102;-69
2023/01/11 06:52:19;;;;;;;8.38;5.63;;;;;;;5.67;94.94;100613.72;5110423;28;20042;-70
2023/01/11 06:54:44;;;;;;;11.63;6.90;;;;;;;5.66;94.34;100603.16;5113606;28;20020;-71
2023/01/11 06:57:10;;;;;;;13.65;6.18;;;;;;;5.63;95.13;100611.34;5111408;28;20093;-69
2023/01/11 06:59:37;;;;;;;11.00;6.47;;;;;;;5.68;95.93;100622.56;5113104;28;20122;-70
2023/01/11 07:02:02;;;;;;;12.80;7.90;;;;;;;5.62;95.92;100613.16;5113971;28;20028;-70
2023/01/11 07:04:29;;;;;;;11.20;6.95;;;;;;;5.59;96.45;100616.00;5114594;28;20027;-71
2023/01/11 07:06:55;;;;;;;9.00;6.15;;;;;;;5.66;96.49;100630.63;5114718;28;20030;-70
2023/01/11 07:09:20;;;;;;;11.32;6.82;;;;;;;5.61;96.50;100635.38;5113989;28;20035;-71
2023/01/11 07:11:46;;;;;;;11.25;6.15;;;;;;;5.69;96.09;100632.25;5114383;28;20115;-70
2023/01/11 07:14:13;;;;;;;10.02;6.63;;;;;;;5.65;96.05;100620.94;5114106;28;20459;-71
2023/01/11 07:16:39;;;;;;;10.27;6.63;;;;;;;5.66;95.71;100622.66;5113559;28;20023;-70
2023/01/11 07:19:05;;;;;;;11.98;6.70;;;;;;;5.74;95.83;100638.13;5113889;28;20026;-69
2023/01/11 07:21:30;;;;;;;9.07;6.72;;;;;;;5.62;95.24;100628.25;5113929;28;20027;-71
2023/01/11 07:23:56;;;;;;;9.23;6.60;;;;;;;5.79;95.06;100631.56;5114329;28;20031;-70
2023/01/11 07:26:21;;;;;;;10.68;6.53;;;;;;;5.78;94.91;100648.50;5113796;28;20031;-70
2023/01/11 07:28:47;;;;;;;10.73;6.80;;;;;;;5.87;94.56;100653.25;5113641;28;20028;-70
2023/01/11 07:31:12;;;;;;;11.70;7.20;;;;;;;5.88;94.32;100648.78;5110473;28;20031;-71
2023/01/11 07:33:37;;;;;;;18.10;8.48;;;;;;;5.97;93.55;100654.38;5112177;28;20088;-69
2023/01/11 07:36:05;;;;;;;11.85;6.93;;;;;;;5.88;93.72;100649.66;5113379;28;20076;-70
2023/01/11 07:38:31;;;;;;;13.10;8.02;;;;;;;5.81;94.80;100650.09;5113580;28;20637;-71
2023/01/11 07:40:56;;;;;;;10.32;6.88;;;;;;;5.75;96.17;100642.50;5113655;28;20144;-70
2023/01/11 07:43:22;;;;;;;11.30;8.02;;;;;;;5.74;96.45;100638.97;5113798;28;20039;-69
2023/01/11 07:45:50;;;;;;;13.13;8.77;;;;;;;5.77;96.71;100641.44;5112852;28;20023;-70
2023/01/11 07:48:25;;;;;;;12.95;8.13;;;;;;;5.74;96.47;100640.81;5113018;28;20069;-71
2023/01/11 07:50:51;;;;;;;12.77;8.85;;;;;;;5.71;96.80;100652.47;5113564;28;20031;-70
2023/01/11 07:53:17;;;;;;;15.40;8.65;;;;;;;5.80;96.28;100677.69;5113060;28;20042;-70
2023/01/11 07:55:43;;;;;;;14.82;9.20;;;;;;;5.79;95.10;100668.81;5112863;28;20027;-70
2023/01/11 07:58:13;;;;;;;15.57;9.77;;;;;;;5.83;95.28;100683.69;5113034;28;20030;-71
2023/01/11 08:00:39;;;;;;;13.77;9.27;;;;;;;5.75;95.00;100656.69;5112699;27;20414;-71
2023/01/11 08:03:06;;;;;;;13.18;8.68;;;;;;;5.83;95.88;100665.03;5111658;28;20019;-69
2023/01/11 08:05:31;;;;;;;14.15;8.68;;;;;;;5.78;95.71;100651.16;5112074;28;20042;-70
2023/01/11 08:07:57;;;;;;;15.02;9.18;;;;;;;5.98;93.13;100669.41;5112236;28;20023;-70
2023/01/11 08:10:23;;;;;;;12.82;7.82;;;;;;;5.99;93.59;100667.59;5112750;27;20111;-69
2023/01/11 08:15:35;;;;;;;15.00;9.18;;;;;;;5.97;93.78;100670.34;5112528;28;20030;-70
2023/01/11 08:18:02;;;;;;;17.00;8.85;;;;;;;5.98;93.56;100668.56;5113725;28;20111;-70
2023/01/11 08:20:27;;;;;;;16.60;9.18;;;;;;;5.96;94.04;100675.78;5113391;27;20015;-70
2023/01/11 08:22:53;;;;;;;15.70;8.88;;;;;;;6.00;93.78;100678.13;5112080;28;20032;-70
2023/01/11 08:25:19;;;;;;;11.88;8.43;;;;;;;5.96;93.76;100673.97;5113145;28;20035;-71
2023/01/11 08:27:45;;;;;;;18.88;9.95;;;;;;;5.89;94.11;100675.31;5112884;28;20048;-71
2023/01/11 08:30:11;;;;;;;14.32;9.43;;;;;;;5.94;94.46;100680.34;5110069;28;20036;-71
2023/01/11 08:32:36;;;;;;;17.15;9.85;;;;;;;5.93;93.96;100674.16;5111511;28;20108;-71
2023/01/11 08:35:02;;;;;;;13.98;8.93;;;;;;;5.93;94.28;100676.00;5110272;28;20081;-70
2023/01/11 08:37:27;;;;;;;13.25;8.85;;;;;;;6.01;94.13;100681.66;5111079;28;20019;-70
2023/01/11 08:39:55;;;;;;;13.63;8.57;;;;;;;6.01;93.32;100673.69;5110347;28;20028;-71
2023/01/11 08:42:21;;;;;;;13.15;8.82;;;;;;;6.07;92.95;100673.28;5112511;28;20421;-69
2023/01/11 08:44:46;;;;;;;16.75;10.55;;;;;;;5.90;92.50;100655.72;5111234;28;20077;-69
2023/01/11 08:47:12;;;;;;;13.85;9.27;;;;;;;6.27;92.02;100688.84;5112140;28;20131;-70
2023/01/11 08:49:39;;;;;;;15.10;8.75;;;;;;;6.25;91.27;100688.06;5112595;28;20372;-70
2023/01/11 08:52:04;;;;;;;13.02;8.88;;;;;;;6.23;91.94;100693.50;5112548;28;20031;-70
2023/01/11 08:54:30;;;;;;;14.93;9.00;;;;;;;6.21;92.05;100703.41;5112457;28;20031;-71
2023/01/11 08:56:55;;;;;;;17.85;9.25;;;;;;;6.19;92.61;100702.66;5112321;28;20507;-70
2023/01/11 08:59:21;;;;;;;12.57;8.55;;;;;;;6.21;92.92;100706.09;5111062;28;20043;-70
2023/01/11 09:01:46;;;;;;;12.93;8.88;;;;;;;6.50;89.75;100699.72;5112614;28;20043;-70
2023/01/11 09:04:12;;;;;;;19.02;10.88;;;;;;;6.48;90.69;100701.63;5112308;28;20035;-70
2023/01/11 09:06:37;;;;;;;15.68;10.05;;;;;;;6.45;90.88;100698.34;5111989;28;20016;-71
2023/01/11 09:09:03;;;;;;;15.90;9.40;;;;;;;6.33;91.63;100688.47;5110665;28;20028;-71
2023/01/11 09:14:12;;;;;;;16.27;9.65;;;;;;;6.53;90.66;100712.00;5112141;28;20042;-71
2023/01/11 09:16:38;;;;;;;14.52;10.23;;;;;;;6.50;91.29;100721.06;5111351;28;20032;-71
2023/01/11 09:19:03;;;;;;;18.52;12.48;;;;;;;6.40;91.51;100706.63;5112392;28;20023;-70
2023/01/11 09:21:29;;;;;;;27.45;12.02;;;;;;;6.54;91.53;100713.69;5112005;28;20027;-71
2023/01/11 09:23:55;;;;;;;23.92;14.43;;;;;;;6.60;91.86;100721.28;5111421;28;20043;-71
2023/01/11 09:26:20;;;;;;;19.58;11.07;;;;;;;6.60;89.80;100699.97;5111978;28;20036;-71
2023/01/11 09:28:46;;;;;;;19.00;11.77;;;;;;;6.64;91.13;100710.34;5111944;28;20032;-70
2023/01/11 09:31:11;;;;;;;16.00;10.82;;;;;;;6.73;90.51;100699.09;5110201;28;20164;-70
2023/01/11 09:33:38;;;;;;;14.98;9.98;;;;;;;6.75;90.88;100710.47;5111773;28;20034;-71
2023/01/11 09:36:04;;;;;;;14.75;9.55;;;;;;;6.83;89.79;100700.19;5110227;28;20019;-70
2023/01/11 09:38:29;;;;;;;15.18;10.63;;;;;;;7.09;86.30;100698.41;5111421;28;20035;-70
2023/01/11 09:41:19;;;;;;;17.13;10.48;;;;;;;7.11;88.32;100699.19;5111568;28;20080;-70
2023/01/11 09:43:51;;;;;;;15.25;9.55;;;;;;;7.20;88.24;100697.69;5111896;28;20020;-70
2023/01/11 09:46:18;;;;;;;16.92;10.10;;;;;;;7.30;85.76;100690.78;5110087;28;20502;-70
2023/01/11 09:48:50;;;;;;;15.20;8.20;;;;;;;7.23;87.00;100693.03;5111340;28;20043;-72
2023/01/11 09:51:18;;;;;;;14.25;7.70;;;;;;;7.35;85.88;100697.50;5111350;28;20038;-71
2023/01/11 09:53:51;;;;;;;12.65;9.00;;;;;;;7.42;84.40;100713.97;5111359;27;20098;-71
2023/01/11 09:56:24;;;;;;;15.35;9.68;;;;;;;7.39;85.00;100707.03;5111466;28;20030;-71
2023/01/11 09:58:57;;;;;;;12.88;9.35;;;;;;;7.45;85.57;100709.25;5110909;28;20036;-70
2023/01/11 10:01:34;;;;;;;14.70;9.05;;;;;;;7.37;86.08;100700.06;5109830;28;20031;-70
2023/01/11 10:04:37;;;;;;;15.18;9.38;;;;;;;7.31;87.03;100708.47;5090933;28;20036;-71
2023/01/11 10:07:24;;;;;;;17.25;9.75;;;;;;;7.39;86.47;100711.50;5099808;28;20028;-71
2023/01/11 10:10:32;;;;;;;15.80;9.60;;;;;;;7.34;87.20;100702.94;5110828;28;20067;-71
2023/01/11 10:13:08;;;;;;;15.70;9.90;;;;;;;7.38;87.71;100699.97;5095068;28;20036;-71
2023/01/11 10:15:50;;;;;;;14.93;9.48;;;;;;;7.42;87.55;100695.28;5104878;28;20051;-70
2023/01/11 10:18:34;;;;;;;15.90;9.68;;;;;;;7.42;86.79;100688.16;5111252;28;20027;-70
2023/01/11 10:21:13;;;;;;;13.27;8.60;;;;;;;7.41;87.59;100699.75;5110935;28;20023;-70
2023/01/11 10:23:49;;;;;;;14.30;9.15;;;;;;;7.38;87.86;100686.63;5110937;28;20035;-71
2023/01/11 10:26:35;;;;;;;15.77;9.77;;;;;;;7.41;87.88;100691.75;5110918;28;20023;-71
2023/01/11 10:29:20;;;;;;;14.35;9.10;;;;;;;7.49;86.71;100691.22;5110102;28;20093;-71
2023/01/11 10:43:02;;;;;;;15.25;8.20;;;;;;;7.70;85.04;100689.75;5110822;28;20031;-70
2023/01/11 10:45:59;;;;;;;18.98;10.68;;;;;;;7.70;85.66;100695.91;5110400;28;20047;-68
2023/01/11 10:48:33;;;;;;;18.00;10.35;;;;;;;7.69;86.68;100702.22;5072413;28;20044;-68
2023/01/11 10:51:26;;;;;;;17.30;10.73;;;;;;;7.73;86.67;100692.16;5104551;28;20052;-68
2023/01/11 10:54:04;;;;;;;15.93;10.15;;;;;;;7.79;85.06;100689.94;5110134;28;20398;-68
2023/01/11 10:57:10;;;;;;;15.75;9.23;;;;;;;7.72;86.21;100672.66;5108590;28;20457;-69
2023/01/11 10:59:45;;;;;;;13.15;8.50;;;;;;;7.79;86.25;100675.72;5092553;28;20018;-68
2023/01/11 11:02:48;;;;;;;15.73;9.60;;;;;;;7.94;86.14;100686.19;5108198;28;20108;-68
2023/01/11 11:05:41;;;;;;;19.17;10.20;;;;;;;8.25;81.34;100682.19;5109443;28;20542;-68
2023/01/11 11:08:16;;;;;;;14.82;8.90;;;;;;;8.36;80.23;100676.94;5109868;28;20077;-69
2023/01/11 11:10:51;;;;;;;15.25;9.25;;;;;;;8.27;80.21;100678.47;5110036;28;20114;-68
2023/01/11 11:13:28;;;;;;;13.77;8.95;;;;;;;8.20;80.49;100674.50;5108835;28;20039;-68
2023/01/11 11:16:03;;;;;;;15.55;8.88;;;;;;;8.15;82.65;100665.09;5109866;28;20042;-69
2023/01/11 11:18:28;;;;;;;12.70;7.95;;;;;;;8.14;83.67;100668.72;5110012;28;20023;-68
2023/01/11 11:21:01;;;;;;;13.93;8.88;;;;;;;8.09;83.82;100665.56;5110037;28;20093;-66
2023/01/11 11:23:28;;;;;;;14.68;9.95;;;;;;;8.24;83.09;100678.69;5109894;28;20027;-68
2023/01/11 11:25:58;;;;;;;11.60;8.55;;;;;;;8.24;83.72;100673.34;5109543;28;20024;-68
2023/01/11 11:28:32;;;;;;;13.02;9.15;;;;;;;8.34;82.76;100660.13;5109836;28;20085;-67
2023/01/11 11:31:01;;;;;;;15.47;10.27;;;;;;;8.27;83.17;100640.19;5108311;28;20453;-68
2023/01/11 11:33:38;;;;;;;15.73;9.52;;;;;;;8.37;83.59;100654.56;5110066;28;20376;-68
2023/01/11 11:36:03;;;;;;;17.45;10.98;;;;;;;8.45;81.47;100658.38;5108574;28;20020;-67
2023/01/11 11:38:32;;;;;;;22.25;9.95;;;;;;;8.49;81.55;100651.00;5109899;28;20034;-67
2023/01/11 11:41:06;;;;;;;16.33;10.27;;;;;;;8.68;80.44;100654.03;5111338;28;20023;-68
2023/01/11 11:43:33;;;;;;;12.43;8.73;;;;;;;8.53;80.95;100647.13;5113478;28;20106;-67
2023/01/11 11:46:01;;;;;;;14.30;9.07;;;;;;;8.49;81.23;100637.66;5113518;28;20023;-68
2023/01/11 11:48:30;;;;;;;18.02;9.18;;;;;;;8.50;81.56;100644.69;5112957;28;20035;-68
2023/01/11 11:50:58;;;;;;;13.95;9.23;;;;;;;8.66;80.13;100650.59;5112002;28;20027;-69
2023/01/11 11:53:52;;;;;;;16.00;9.38;;;;;;;8.61;81.25;100647.44;5111976;28;20020;-68
2023/01/11 11:56:27;;;;;;;15.13;10.15;;;;;;;8.72;80.64;100640.31;5088325;28;20047;-68
2023/01/11 11:58:55;;;;;;;13.20;9.57;;;;;;;8.67;81.32;100636.25;5100269;28;20038;-69
2023/01/11 12:01:30;;;;;;;13.68;10.25;;;;;;;8.58;81.94;100631.63;5106232;28;20490;-68
2023/01/11 12:04:12;;;;;;;14.85;9.80;;;;;;;8.66;81.32;100643.44;5109576;28;20028;-69
2023/01/11 12:06:39;;;;;;;15.55;10.15;;;;;;;8.67;81.67;100650.50;5142050;27;20027;-68
2023/01/11 12:09:11;;;;;;;15.75;9.93;;;;;;;8.65;81.47;100649.75;5111154;28;20492;-68
2023/01/11 12:11:40;;;;;;;19.00;10.48;;;;;;;8.67;82.08;100660.31;5109147;28;20086;-69
2023/01/11 12:14:09;;;;;;;15.15;10.18;;;;;;;8.70;82.32;100658.28;5109481;28;20441;-67
2023/01/11 12:16:39;;;;;;;15.00;10.40;;;;;;;8.67;82.80;100665.66;5106889;27;20028;-68
2023/01/11 12:19:28;;;;;;;14.88;9.93;;;;;;;8.67;83.53;100661.19;5110741;28;20440;-67